createdAt,value
2018-11-01T00:00:38.632Z,3.77
2018-11-01T00:03:07.527Z,5.80
2018-11-01T00:05:36.334Z,5.77
2018-11-01T00:08:05.302Z,4.10
2018-11-01T00:10:34.194Z,4.20
2018-11-01T00:13:03.097Z,4.30
2018-11-01T00:15:32.051Z,3.60
2018-11-01T00:18:00.991Z,3.90
2018-11-01T00:20:29.825Z,3.77
2018-11-01T00:22:58.604Z,3.20
2018-11-01T00:25:27.438Z,3.90
2018-11-01T00:27:56.209Z,3.17
2018-11-01T00:30:25.036Z,4.00
2018-11-01T00:32:53.769Z,4.10
2018-11-01T00:35:22.625Z,3.77
2018-11-01T00:37:51.324Z,4.27
2018-11-01T00:40:20.047Z,3.90
2018-11-01T00:42:48.877Z,3.77
2018-11-01T00:45:17.704Z,4.70
2018-11-01T00:47:46.434Z,3.90
2018-11-01T00:50:16.049Z,3.13
2018-11-01T00:52:45.076Z,3.70
2018-11-01T00:55:14.846Z,3.20
2018-11-01T00:57:43.759Z,3.50
2018-11-01T01:00:14.397Z,3.60
2018-11-01T01:02:43.206Z,3.83
2018-11-01T01:05:12.279Z,4.23
2018-11-01T01:07:41.071Z,4.10
2018-11-01T01:10:12.899Z,4.03
2018-11-01T01:12:42.444Z,3.50
2018-11-01T01:15:11.288Z,3.60
2018-11-01T01:17:40.309Z,4.30
2018-11-01T01:20:12.417Z,4.63
2018-11-01T01:22:42.003Z,4.97
2018-11-01T01:25:12.258Z,3.17
2018-11-01T01:27:41.336Z,3.13
2018-11-01T01:30:16.243Z,4.27
2018-11-01T01:32:45.465Z,4.10
2018-11-01T01:35:14.501Z,3.97
2018-11-01T01:37:43.556Z,4.17
2018-11-01T01:40:12.709Z,2.50
2018-11-01T01:42:46.731Z,3.90
2018-11-01T01:45:15.612Z,4.43
2018-11-01T01:47:44.470Z,4.37
2018-11-01T01:50:14.589Z,3.67
2018-11-01T01:52:44.113Z,3.63
2018-11-01T01:55:13.225Z,3.30
2018-11-01T01:57:41.986Z,4.33
2018-11-01T02:00:19.232Z,4.00
2018-11-01T02:02:49.515Z,4.40
2018-11-01T02:05:18.295Z,5.10
2018-11-01T02:07:47.201Z,4.37
2018-11-01T02:10:16.778Z,5.10
2018-11-01T02:12:45.523Z,5.70
2018-11-01T02:15:16.068Z,3.07
2018-11-01T02:17:45.141Z,5.73
2018-11-01T02:20:15.084Z,5.87
2018-11-01T02:22:44.318Z,5.37
2018-11-01T02:25:13.131Z,4.80
2018-11-01T02:27:47.030Z,5.07
2018-11-01T02:30:16.987Z,5.27
2018-11-01T02:32:46.557Z,4.30
2018-11-01T02:35:17.547Z,5.60
2018-11-01T02:37:46.652Z,5.30
2018-11-01T02:40:15.700Z,5.43
2018-11-01T02:42:44.703Z,4.63
2018-11-01T02:45:14.239Z,4.07
2018-11-01T02:47:46.301Z,4.00
2018-11-01T02:50:15.136Z,4.40
2018-11-01T02:52:44.055Z,4.10
2018-11-01T02:55:13.112Z,4.83
2018-11-01T02:57:41.670Z,4.00
2018-11-01T03:00:13.175Z,4.33
2018-11-01T03:02:41.811Z,3.27
2018-11-01T03:05:11.022Z,3.10
2018-11-01T03:07:39.742Z,3.47
2018-11-01T03:10:09.790Z,3.77
2018-11-01T03:12:38.673Z,4.53
2018-11-01T03:15:08.270Z,2.90
2018-11-01T03:17:37.067Z,3.70
2018-11-01T03:20:06.772Z,3.57
2018-11-01T03:22:35.478Z,4.43
2018-11-01T03:25:04.162Z,2.77
2018-11-01T03:27:32.749Z,3.70
2018-11-01T03:30:01.345Z,4.03
2018-11-01T03:32:29.927Z,3.63
2018-11-01T03:34:58.723Z,3.53
2018-11-01T03:37:27.514Z,3.40
2018-11-01T03:39:56.303Z,3.70
2018-11-01T03:42:25.097Z,3.27
2018-11-01T03:44:53.822Z,2.80
2018-11-01T03:47:22.638Z,2.53
2018-11-01T03:49:51.380Z,3.10
2018-11-01T03:52:20.267Z,3.10
2018-11-01T03:54:49.328Z,3.13
2018-11-01T03:57:18.139Z,4.23
2018-11-01T03:59:46.901Z,3.73
2018-11-01T04:02:15.650Z,3.40
2018-11-01T04:04:44.438Z,3.87
2018-11-01T04:07:13.303Z,2.80
2018-11-01T04:09:42.047Z,2.80
2018-11-01T04:12:10.939Z,2.70
2018-11-01T04:14:39.705Z,2.83
2018-11-01T04:17:08.667Z,2.70
2018-11-01T04:19:37.505Z,2.20
2018-11-01T04:22:07.063Z,3.30
2018-11-01T04:24:37.055Z,2.20
2018-11-01T04:27:06.471Z,2.60
2018-11-01T04:29:36.222Z,2.30
2018-11-01T04:32:05.323Z,2.73
2018-11-01T04:34:34.294Z,2.20
2018-11-01T04:37:03.095Z,2.27
2018-11-01T04:39:31.802Z,2.53
2018-11-01T04:42:00.579Z,2.13
2018-11-01T04:44:29.409Z,2.00
2018-11-01T04:46:59.118Z,1.90
2018-11-01T04:49:28.421Z,2.53
2018-11-01T04:51:57.326Z,1.90
2018-11-01T04:54:26.084Z,1.93
2018-11-01T04:56:54.832Z,1.63
2018-11-01T04:59:23.646Z,2.17
2018-11-01T05:01:52.434Z,2.50
2018-11-01T05:04:21.229Z,1.57
2018-11-01T05:06:50.381Z,3.10
2018-11-01T05:09:19.511Z,1.80
2018-11-01T05:11:48.267Z,2.07
2018-11-01T05:14:17.107Z,1.80
2018-11-01T05:16:45.854Z,1.93
2018-11-01T05:19:14.679Z,2.57
2018-11-01T05:21:43.508Z,1.90
2018-11-01T05:24:12.634Z,1.90
2018-11-01T05:26:41.433Z,1.83
2018-11-01T05:29:10.207Z,2.00
2018-11-01T05:31:38.913Z,2.00
2018-11-01T05:34:07.678Z,2.13
2018-11-01T05:36:36.336Z,2.17
2018-11-01T05:39:07.643Z,2.20
2018-11-01T05:41:36.480Z,2.50
2018-11-01T05:44:05.506Z,2.57
2018-11-01T05:46:34.280Z,2.20
2018-11-01T05:49:03.160Z,2.30
2018-11-01T05:51:32.122Z,1.83
2018-11-01T05:54:00.968Z,2.03
2018-11-01T05:56:29.695Z,2.60
2018-11-01T05:58:58.588Z,2.20
2018-11-01T06:01:34.907Z,2.40
2018-11-01T06:04:04.512Z,2.70
2018-11-01T06:06:33.334Z,2.10
2018-11-01T06:09:03.675Z,1.83
2018-11-01T06:11:32.422Z,2.10
2018-11-01T06:14:01.055Z,2.23
2018-11-01T06:16:29.655Z,2.70
2018-11-01T06:18:58.264Z,2.10
2018-11-01T06:21:26.854Z,2.93
2018-11-01T06:23:55.485Z,2.80
2018-11-01T06:26:24.096Z,2.17
2018-11-01T06:28:52.960Z,2.53
2018-11-01T06:31:21.878Z,2.20
2018-11-01T06:33:50.720Z,2.40
2018-11-01T06:36:19.611Z,2.10
2018-11-01T06:38:48.439Z,2.57
2018-11-01T06:41:17.386Z,2.20
2018-11-01T06:43:46.307Z,1.87
2018-11-01T06:46:15.112Z,2.13
2018-11-01T06:48:43.926Z,1.93
2018-11-01T06:51:12.694Z,2.07
2018-11-01T06:53:41.472Z,1.90
2018-11-01T06:56:10.348Z,1.97
2018-11-01T06:58:39.211Z,1.90
2018-11-01T07:01:08.150Z,1.97
2018-11-01T07:03:37.067Z,1.57
2018-11-01T07:06:06.204Z,2.30
2018-11-01T07:08:35.136Z,2.00
2018-11-01T07:11:03.711Z,2.07
2018-11-01T07:13:32.576Z,1.83
2018-11-01T07:16:01.463Z,2.17
2018-11-01T07:18:30.277Z,2.00
2018-11-01T07:20:58.924Z,1.90
2018-11-01T07:23:27.807Z,2.20
2018-11-01T07:25:56.850Z,2.37
2018-11-01T07:28:25.527Z,2.27
2018-11-01T07:30:54.319Z,2.13
2018-11-01T07:33:23.164Z,2.07
2018-11-01T07:35:51.852Z,2.40
2018-11-01T07:38:20.857Z,2.10
2018-11-01T07:40:49.423Z,2.20
2018-11-01T07:43:18.136Z,1.87
2018-11-01T07:45:47.247Z,1.97
2018-11-01T07:48:16.074Z,2.30
2018-11-01T07:50:44.930Z,2.60
2018-11-01T07:53:13.715Z,2.20
2018-11-01T07:55:44.518Z,2.50
2018-11-01T07:58:16.376Z,2.43
2018-11-01T08:00:45.342Z,2.30
2018-11-01T08:03:14.380Z,2.40
2018-11-01T08:05:43.437Z,2.70
2018-11-01T08:08:12.331Z,2.10
2018-11-01T08:10:41.295Z,2.10
2018-11-01T08:13:10.226Z,2.33
2018-11-01T08:15:39.144Z,1.83
2018-11-01T08:18:08.216Z,2.50
2018-11-01T08:20:37.332Z,2.00
2018-11-01T08:23:06.202Z,2.63
2018-11-01T08:25:35.750Z,1.93
2018-11-01T08:28:05.384Z,1.73
2018-11-01T08:30:34.347Z,2.80
2018-11-01T08:33:03.342Z,2.00
2018-11-01T08:35:32.305Z,2.37
2018-11-01T08:38:01.269Z,2.27
2018-11-01T08:40:30.140Z,2.27
2018-11-01T08:42:59.804Z,1.83
2018-11-01T08:45:36.496Z,2.30
2018-11-01T08:48:06.662Z,2.80
2018-11-01T08:50:40.764Z,1.90
2018-11-01T08:53:10.141Z,3.10
2018-11-01T08:55:39.041Z,2.03
2018-11-01T08:58:11.624Z,1.90
2018-11-01T09:00:40.569Z,2.30
2018-11-01T09:03:25.533Z,1.83
2018-11-01T09:05:54.910Z,2.30
2018-11-01T09:14:11.527Z,1.90
2018-11-01T09:16:40.863Z,2.20
2018-11-01T09:19:09.795Z,2.23
2018-11-01T09:21:38.878Z,1.87
2018-11-01T11:38:32.918Z,1.73
2018-11-01T11:41:01.913Z,1.90
2018-11-01T11:43:31.088Z,1.73
2018-11-01T11:46:00.013Z,1.30
2018-11-01T11:48:29.148Z,1.70
2018-11-01T11:50:58.035Z,1.40
2018-11-01T11:53:26.920Z,1.97
2018-11-01T11:55:55.923Z,1.37
2018-11-01T11:58:24.755Z,1.30
2018-11-01T12:00:53.739Z,1.60
2018-11-01T12:03:22.576Z,1.70
2018-11-01T12:05:51.426Z,1.87
2018-11-01T12:08:20.643Z,1.23
2018-11-01T12:10:49.832Z,1.10
2018-11-01T12:13:18.692Z,1.40
2018-11-01T12:15:48.395Z,1.63
2018-11-01T12:18:17.551Z,1.63
2018-11-01T12:20:46.338Z,1.90
2018-11-01T12:23:15.496Z,1.80
2018-11-01T12:25:44.698Z,1.30
2018-11-01T12:28:14.114Z,1.70
2018-11-01T12:30:43.492Z,1.60
2018-11-01T12:33:12.363Z,2.10
2018-11-01T12:35:45.701Z,1.80
2018-11-01T12:38:15.576Z,1.80
2018-11-01T13:59:10.631Z,2.30
2018-11-01T14:04:39.882Z,1.93
2018-11-01T14:07:09.706Z,1.30
2018-11-01T14:09:38.891Z,2.27
2018-11-01T14:12:08.202Z,1.30
2018-11-01T14:14:37.777Z,1.93
2018-11-01T14:17:07.939Z,2.50
2018-11-01T14:19:36.847Z,1.80
2018-11-01T14:22:05.763Z,1.50
2018-11-01T14:24:35.019Z,1.30
2018-11-01T14:27:03.867Z,1.83
2018-11-01T14:29:33.220Z,1.67
2018-11-01T14:32:02.182Z,2.10
2018-11-01T14:34:31.658Z,2.30
2018-11-01T14:37:01.209Z,2.13
2018-11-01T14:39:30.171Z,2.67
2018-11-01T14:41:59.235Z,2.20
2018-11-01T14:44:28.328Z,2.03
2018-11-01T14:46:57.286Z,2.30
2018-11-01T14:49:26.536Z,2.40
2018-11-01T14:51:56.120Z,2.43
2018-11-01T14:54:29.199Z,2.83
2018-11-01T14:56:59.760Z,2.30
2018-11-01T14:59:28.571Z,2.10
2018-11-01T15:01:56.198Z,2.17
2018-11-01T15:04:25.370Z,2.90
2018-11-01T15:06:54.675Z,3.20
2018-11-01T15:09:23.709Z,2.37
2018-11-01T15:11:52.921Z,2.00
2018-11-01T15:14:22.342Z,2.60
2018-11-01T15:16:57.961Z,3.37
2018-11-01T15:19:27.181Z,2.63
2018-11-01T15:22:03.663Z,2.77
2018-11-01T15:24:33.626Z,2.80
2018-11-01T15:27:03.486Z,2.80
2018-11-01T15:29:41.407Z,3.30
2018-11-01T15:32:25.090Z,3.00
2018-11-01T15:34:55.719Z,2.80
2018-11-01T15:37:24.913Z,3.13
2018-11-01T15:39:54.680Z,2.73
2018-11-01T15:42:23.767Z,3.13
2018-11-01T15:44:52.798Z,2.43
2018-11-01T15:47:21.907Z,3.60
2018-11-01T15:49:53.214Z,3.10
2018-11-01T15:52:22.416Z,3.23
2018-11-01T15:54:51.401Z,3.43
2018-11-01T15:57:21.817Z,2.90
2018-11-01T15:59:51.075Z,2.70
2018-11-01T16:02:20.390Z,2.73
2018-11-01T16:04:49.551Z,2.67
2018-11-01T16:07:18.648Z,2.60
2018-11-01T16:09:47.610Z,4.13
2018-11-01T16:12:16.767Z,3.43
2018-11-01T16:14:46.070Z,3.93
2018-11-01T16:17:15.304Z,7.77
2018-11-01T16:19:45.255Z,9.43
2018-11-01T16:22:19.525Z,10.47
2018-11-01T16:24:48.534Z,8.13
2018-11-01T17:01:17.415Z,2.10
2018-11-01T17:03:47.629Z,3.53
2018-11-01T17:06:16.796Z,2.57
2018-11-01T17:08:47.090Z,2.60
2018-11-01T17:11:16.041Z,2.20
2018-11-01T17:13:45.996Z,2.33
2018-11-01T17:16:16.231Z,2.80
2018-11-01T17:18:45.408Z,2.03
2018-11-01T17:21:14.587Z,4.33
2018-11-01T17:23:43.581Z,3.20
2018-11-01T17:26:13.238Z,3.10
2018-11-01T17:28:42.586Z,3.30
2018-11-01T17:31:24.470Z,3.47
2018-11-01T17:34:04.345Z,2.50
2018-11-01T17:36:45.623Z,2.80
2018-11-01T17:39:21.402Z,1.63
2018-11-01T17:41:52.070Z,3.27
2018-11-01T17:44:34.661Z,3.83
2018-11-01T17:47:11.553Z,3.63
2018-11-01T17:49:46.091Z,2.73
2018-11-01T17:52:18.435Z,4.20
2018-11-01T17:54:48.439Z,4.00
2018-11-01T17:57:21.072Z,3.43
2018-11-01T18:00:09.878Z,2.67
2018-11-01T19:18:54.489Z,5.10
2018-11-01T19:21:23.226Z,6.00
2018-11-01T19:23:52.412Z,3.07
2018-11-01T19:26:21.547Z,3.77
2018-11-01T19:28:50.276Z,5.77
2018-11-01T19:31:19.166Z,5.40
2018-11-01T19:33:47.966Z,5.93
2018-11-01T19:36:16.886Z,5.13
2018-11-01T19:38:45.799Z,4.03
2018-11-01T19:41:14.671Z,4.70
2018-11-01T19:43:43.506Z,5.30
2018-11-01T19:46:13.334Z,3.57
2018-11-01T19:48:42.197Z,5.07
2018-11-01T19:51:12.092Z,5.10
2018-11-01T19:53:41.873Z,4.50
2018-11-01T19:56:10.900Z,5.47
2018-11-01T19:58:39.576Z,4.67
2018-11-01T20:01:08.422Z,4.90
2018-11-01T20:03:37.263Z,4.60
2018-11-01T20:06:06.383Z,3.60
2018-11-01T20:08:35.229Z,4.63
2018-11-01T20:11:03.933Z,2.30
2018-11-01T20:13:32.651Z,3.13
2018-11-01T20:16:01.573Z,2.70
2018-11-01T20:18:30.450Z,2.43
2018-11-01T20:21:00.303Z,1.80
2018-11-01T22:48:59.298Z,0.90
